createdAt,value
2018-09-10T00:00:58.251Z,11.30
2018-09-10T00:03:26.043Z,11.30
2018-09-10T00:05:53.723Z,11.40
2018-09-10T00:10:48.721Z,11.00
2018-09-10T00:13:16.532Z,11.00
2018-09-10T00:15:44.177Z,11.10
2018-09-10T00:18:11.942Z,11.20
2018-09-10T00:20:45.256Z,11.10
2018-09-10T00:23:12.948Z,11.00
2018-09-10T00:25:40.627Z,11.10
2018-09-10T00:28:08.328Z,11.10
2018-09-10T00:30:39.123Z,11.10
2018-09-10T00:33:06.908Z,11.00
2018-09-10T00:35:34.588Z,11.00
2018-09-10T00:38:02.269Z,11.00
2018-09-10T00:40:30.951Z,11.00
2018-09-10T00:42:58.644Z,11.00
2018-09-10T00:45:26.323Z,10.90
2018-09-10T00:47:54.009Z,10.70
2018-09-10T00:50:21.715Z,10.70
2018-09-10T00:52:49.361Z,10.60
2018-09-10T00:55:17.024Z,10.40
2018-09-10T00:57:44.712Z,10.70
2018-09-10T01:00:17.647Z,10.50
2018-09-10T01:05:12.668Z,10.20
2018-09-10T01:07:40.352Z,10.30
2018-09-10T01:10:38.915Z,10.40
2018-09-10T01:13:06.680Z,10.40
2018-09-10T01:15:34.405Z,10.30
2018-09-10T01:18:02.116Z,10.40
2018-09-10T01:20:34.007Z,10.50
2018-09-10T01:23:01.744Z,10.50
2018-09-10T01:25:29.472Z,10.50
2018-09-10T01:27:57.231Z,10.60
2018-09-10T01:30:26.055Z,10.60
2018-09-10T01:32:53.803Z,10.40
2018-09-10T01:35:21.551Z,10.40
2018-09-10T01:37:49.234Z,10.40
2018-09-10T01:40:29.948Z,10.20
2018-09-10T01:42:57.620Z,10.00
2018-09-10T01:45:25.344Z,10.10
2018-09-10T01:47:53.073Z,10.00
2018-09-10T01:50:31.643Z,10.10
2018-09-10T01:52:59.309Z,10.10
2018-09-10T01:55:27.008Z,9.90
2018-09-10T01:57:54.680Z,9.90
2018-09-10T02:00:24.399Z,10.00
2018-09-10T02:02:52.091Z,10.10
2018-09-10T02:05:19.756Z,10.10
2018-09-10T02:07:47.448Z,10.20
2018-09-10T02:10:17.351Z,9.90
2018-09-10T02:15:12.391Z,9.70
2018-09-10T02:17:40.064Z,9.50
2018-09-10T02:20:17.803Z,9.50
2018-09-10T02:22:45.450Z,9.70
2018-09-10T02:25:13.201Z,9.70
2018-09-10T02:27:40.898Z,9.70
2018-09-10T02:30:09.616Z,9.70
2018-09-10T02:32:37.355Z,9.80
2018-09-10T02:35:05.132Z,9.80
2018-09-10T02:37:32.833Z,9.80
2018-09-10T02:40:04.554Z,9.70
2018-09-10T02:42:32.224Z,9.60
2018-09-10T02:44:59.903Z,9.50
2018-09-10T02:47:27.624Z,9.40
2018-09-10T02:49:56.350Z,9.40
2018-09-10T02:52:24.026Z,9.40
2018-09-10T02:54:51.674Z,9.50
2018-09-10T02:57:19.452Z,9.50
2018-09-10T02:59:49.164Z,9.30
2018-09-10T03:02:16.822Z,9.20
2018-09-10T03:04:45.309Z,9.20
2018-09-10T03:07:13.171Z,9.10
2018-09-10T03:09:40.884Z,9.00
2018-09-10T03:12:08.598Z,8.90
2018-09-10T03:14:37.145Z,8.90
2018-09-10T03:17:04.856Z,9.10
2018-09-10T03:19:34.652Z,9.20
2018-09-10T03:22:02.349Z,9.20
2018-09-10T03:24:30.083Z,9.30
2018-09-10T03:26:57.731Z,9.30
2018-09-10T03:29:25.549Z,9.30
2018-09-10T03:31:59.805Z,9.30
2018-09-10T03:34:27.493Z,9.30
2018-09-10T03:36:55.171Z,9.30
2018-09-10T03:39:25.044Z,9.40
2018-09-10T03:41:52.632Z,9.30
2018-09-10T03:44:20.256Z,9.10
2018-09-10T03:46:47.921Z,9.00
2018-09-10T03:49:21.431Z,9.00
2018-09-10T03:51:49.128Z,8.80
2018-09-10T03:54:16.899Z,8.70
2018-09-10T03:59:19.869Z,8.40
2018-09-10T04:04:15.024Z,8.30
2018-09-10T04:06:42.732Z,8.10
2018-09-10T04:09:12.454Z,8.00
2018-09-10T04:11:40.097Z,8.00
2018-09-10T04:14:07.809Z,8.10
2018-09-10T04:16:35.426Z,8.20
2018-09-10T04:19:04.148Z,8.40
2018-09-10T04:21:31.880Z,8.40
2018-09-10T04:23:59.555Z,8.50
2018-09-10T04:26:27.209Z,8.40
2018-09-10T04:29:02.420Z,8.20
2018-09-10T04:31:30.072Z,8.20
2018-09-10T04:33:57.724Z,8.40
2018-09-10T04:36:25.420Z,8.30
2018-09-10T04:39:01.267Z,8.10
2018-09-10T04:41:33.337Z,8.10
2018-09-10T04:44:01.038Z,8.00
2018-09-10T04:46:28.775Z,8.10
2018-09-10T04:48:56.494Z,8.20
2018-09-10T04:51:24.233Z,8.20
2018-09-10T04:53:51.991Z,8.30
2018-09-10T04:56:19.742Z,8.30
2018-09-10T04:58:47.469Z,8.40
2018-09-10T05:01:15.186Z,8.40
2018-09-10T05:03:42.904Z,8.40
2018-09-10T05:06:10.608Z,8.30
2018-09-10T05:08:41.946Z,8.30
2018-09-10T05:11:09.660Z,8.40
2018-09-10T05:13:37.387Z,8.40
2018-09-10T05:16:05.123Z,8.40
2018-09-10T05:18:45.821Z,8.40
2018-09-10T05:21:13.456Z,8.30
2018-09-10T05:23:41.167Z,8.20
2018-09-10T05:26:08.795Z,8.30
2018-09-10T05:28:38.579Z,8.60
2018-09-10T05:31:06.244Z,8.80
2018-09-10T05:33:33.925Z,9.00
2018-09-10T05:36:01.665Z,8.90
2018-09-10T05:38:29.324Z,8.70
2018-09-10T05:40:56.916Z,8.90
2018-09-10T05:43:24.417Z,8.80
2018-09-10T05:45:52.729Z,9.00
2018-09-10T05:48:20.269Z,9.20
2018-09-10T05:50:47.779Z,9.10
2018-09-10T05:53:15.322Z,9.20
2018-09-10T05:55:42.832Z,9.20
2018-09-10T05:58:10.427Z,9.30
2018-09-10T06:00:39.055Z,9.40
2018-09-10T06:03:06.604Z,9.40
2018-09-10T06:05:34.111Z,9.40
2018-09-10T06:08:01.608Z,9.50
2018-09-10T06:14:00.351Z,9.80
2018-09-10T06:16:27.950Z,10.10
2018-09-10T06:18:55.419Z,10.20
2018-09-10T06:21:22.952Z,10.30
2018-09-10T06:23:50.480Z,10.10
2018-09-10T06:26:18.030Z,10.10
2018-09-10T06:33:55.122Z,10.90
2018-09-10T06:36:22.731Z,11.20
2018-09-10T06:38:58.259Z,11.40
2018-09-10T06:41:25.811Z,11.50
2018-09-10T06:43:53.359Z,11.70
2018-09-10T06:46:20.887Z,11.90
2018-09-10T06:48:53.395Z,11.70
2018-09-10T06:51:20.904Z,11.70
2018-09-10T06:53:48.424Z,11.90
2018-09-10T06:56:15.927Z,12.10
2018-09-10T06:58:48.568Z,12.40
2018-09-10T07:01:16.297Z,12.60
2018-09-10T07:03:44.096Z,12.80
2018-09-10T07:06:11.859Z,13.20
2018-09-10T07:08:41.667Z,13.40
2018-09-10T07:11:09.381Z,13.80
2018-09-10T07:13:37.069Z,13.70
2018-09-10T07:16:04.779Z,13.70
2018-09-10T07:18:34.603Z,13.70
2018-09-10T07:21:02.299Z,13.90
2018-09-10T07:23:30.024Z,14.10
2018-09-10T07:25:57.756Z,14.30
2018-09-10T07:28:37.544Z,14.60
2018-09-10T07:31:05.232Z,14.90
2018-09-10T07:33:32.974Z,15.00
2018-09-10T07:36:00.692Z,14.80
2018-09-10T07:38:33.420Z,15.10
2018-09-10T07:41:01.211Z,15.40
2018-09-10T07:43:28.944Z,15.70
2018-09-10T07:45:56.584Z,15.80
2018-09-10T07:48:39.291Z,15.70
2018-09-10T07:51:06.799Z,16.10
2018-09-10T07:53:34.312Z,16.20
2018-09-10T07:56:01.838Z,16.30
2018-09-10T07:58:29.426Z,16.70
2018-09-10T08:00:56.972Z,16.80
2018-09-10T08:03:24.504Z,17.20
2018-09-10T08:05:52.093Z,16.90
2018-09-10T08:08:51.346Z,16.90
2018-09-10T08:13:46.171Z,17.50
2018-09-10T08:16:13.735Z,17.90
2018-09-10T08:18:44.616Z,17.70
2018-09-10T08:21:12.127Z,17.80
2018-09-10T08:23:39.799Z,18.20
2018-09-10T08:29:11.760Z,18.50
2018-09-10T08:31:39.531Z,18.80
2018-09-10T08:34:07.415Z,19.20
2018-09-10T08:39:07.627Z,19.20
2018-09-10T08:41:35.421Z,19.60
2018-09-10T08:46:30.620Z,20.40
2018-09-10T08:49:03.407Z,20.60
2018-09-10T08:51:31.112Z,20.50
2018-09-10T08:53:58.930Z,20.70
2018-09-10T08:56:26.713Z,20.80
2018-09-10T08:59:06.800Z,20.70
2018-09-10T09:01:34.507Z,21.10
2018-09-10T09:04:02.245Z,21.10
2018-09-10T09:09:09.013Z,21.40
2018-09-10T09:11:36.848Z,21.60
2018-09-10T09:14:04.564Z,22.00
2018-09-10T09:16:32.283Z,22.10
2018-09-10T09:18:59.967Z,22.10
2018-09-10T09:21:28.247Z,22.30
2018-09-10T09:23:56.410Z,22.60
2018-09-10T09:26:24.132Z,22.40
2018-09-10T09:29:06.327Z,22.50
2018-09-10T09:34:01.627Z,22.90
2018-09-10T09:36:34.727Z,23.20
2018-09-10T09:39:26.563Z,23.40
2018-09-10T09:41:59.419Z,23.80
2018-09-10T09:44:32.365Z,24.10
2018-09-10T09:46:59.939Z,24.40
2018-09-10T09:49:39.051Z,24.60
2018-09-10T09:52:06.571Z,24.60
2018-09-10T09:54:34.068Z,24.80
2018-09-10T09:57:01.631Z,24.80
2018-09-10T09:59:33.163Z,25.20
2018-09-10T10:02:06.006Z,25.60
2018-09-10T10:04:33.588Z,25.60
2018-09-10T10:07:01.084Z,25.10
2018-09-10T10:12:58.011Z,25.30
2018-09-10T10:15:25.598Z,25.10
2018-09-10T10:17:53.139Z,25.30
2018-09-10T10:20:20.765Z,25.40
2018-09-10T10:22:48.291Z,25.80
2018-09-10T10:25:15.817Z,25.80
2018-09-10T10:30:55.963Z,26.20
2018-09-10T10:33:23.523Z,25.80
2018-09-10T10:35:51.094Z,25.90
2018-09-10T10:38:18.860Z,26.30
2018-09-10T10:40:48.273Z,26.00
2018-09-10T10:43:18.948Z,26.10
2018-09-10T10:48:30.842Z,25.90
2018-09-10T10:50:58.487Z,25.80
2018-09-10T10:53:36.577Z,26.20
2018-09-10T10:58:44.903Z,26.50
2018-09-10T11:01:12.496Z,26.80
2018-09-10T11:06:07.392Z,26.50
2018-09-10T11:08:36.152Z,26.60
2018-09-10T11:11:03.856Z,27.10
2018-09-10T11:13:31.504Z,28.10
2018-09-10T11:15:59.252Z,28.70
2018-09-10T11:18:27.024Z,28.40
2018-09-10T11:20:59.388Z,27.90
2018-09-10T11:23:27.768Z,28.00
2018-09-10T11:25:56.366Z,28.00
2018-09-10T11:30:56.644Z,27.40
2018-09-10T11:33:24.336Z,27.40
2018-09-10T11:35:55.295Z,27.40
2018-09-10T11:38:23.072Z,28.00
2018-09-10T11:40:50.776Z,29.10
2018-09-10T11:43:18.552Z,29.50
2018-09-10T11:45:46.368Z,29.50
2018-09-10T11:48:24.650Z,29.10
2018-09-10T11:50:52.340Z,29.10
2018-09-10T11:53:20.060Z,28.60
2018-09-10T11:55:47.880Z,28.90
2018-09-10T12:00:43.121Z,30.30
2018-09-10T12:03:14.808Z,30.10
2018-09-10T12:05:57.694Z,30.10
2018-09-10T12:08:39.473Z,30.90
2018-09-10T12:14:23.016Z,29.60
2018-09-10T12:16:53.612Z,30.00
2018-09-10T12:19:23.317Z,31.00
2018-09-10T12:21:51.112Z,31.20
2018-09-10T12:24:20.701Z,31.40
2018-09-10T12:26:48.490Z,31.30
2018-09-10T12:29:20.423Z,31.90
2018-09-10T12:31:48.333Z,31.30
2018-09-10T12:34:28.215Z,31.20
2018-09-10T12:39:24.247Z,29.40
2018-09-10T12:41:51.944Z,29.60
2018-09-10T12:44:24.432Z,29.60
2018-09-10T12:55:43.356Z,32.40
2018-09-10T12:58:21.218Z,32.50
2018-09-10T13:00:58.981Z,31.20
2018-09-10T13:03:27.144Z,30.60
2018-09-10T13:05:54.684Z,30.10
2018-09-10T13:08:40.173Z,30.20
2018-09-10T13:11:07.744Z,30.50
2018-09-10T13:13:35.335Z,30.90
2018-09-10T13:16:02.864Z,31.00
2018-09-10T13:19:04.693Z,31.40
2018-09-10T13:23:59.475Z,29.50
2018-09-10T13:26:26.999Z,29.90
2018-09-10T13:29:19.236Z,30.50
2018-09-10T13:31:46.778Z,31.70
2018-09-10T13:34:14.280Z,32.00
2018-09-10T13:36:42.871Z,31.90
2018-09-10T13:39:12.443Z,32.10
2018-09-10T13:41:39.984Z,31.80
2018-09-10T13:44:07.598Z,31.60
2018-09-10T13:46:35.139Z,31.70
2018-09-10T13:49:02.771Z,31.00
2018-09-10T13:51:30.380Z,30.70
2018-09-10T13:53:58.106Z,30.40
2018-09-10T13:56:25.852Z,30.90
2018-09-10T13:58:55.154Z,31.20
2018-09-10T14:01:22.828Z,31.90
2018-09-10T14:06:17.599Z,29.50
2018-09-10T14:08:50.882Z,28.70
2018-09-10T14:11:18.407Z,28.60
2018-09-10T14:13:46.019Z,28.80
2018-09-10T14:16:13.692Z,28.90
2018-09-10T14:18:42.388Z,29.00
2018-09-10T14:21:10.123Z,28.90
2018-09-10T14:23:37.832Z,28.80
2018-09-10T14:26:05.543Z,29.30
2018-09-10T14:28:40.652Z,29.70
2018-09-10T14:31:08.317Z,29.40
2018-09-10T14:33:36.085Z,28.70
2018-09-10T14:36:03.776Z,28.50
2018-09-10T14:38:49.145Z,28.20
2018-09-10T14:43:44.265Z,27.60
2018-09-10T14:46:12.318Z,27.60
2018-09-10T14:48:58.856Z,27.50
2018-09-10T14:51:26.584Z,27.50
2018-09-10T14:53:54.384Z,27.60
2018-09-10T14:56:22.080Z,27.50
2018-09-10T14:58:50.010Z,27.20
2018-09-10T15:01:17.660Z,27.20
2018-09-10T15:03:45.456Z,26.90
2018-09-10T15:06:13.032Z,26.90
2018-09-10T15:08:50.924Z,26.80
2018-09-10T15:11:18.450Z,26.90
2018-09-10T15:13:45.955Z,26.80
2018-09-10T15:16:13.603Z,26.60
2018-09-10T15:18:42.202Z,26.50
2018-09-10T15:21:09.707Z,26.40
2018-09-10T15:23:37.243Z,26.50
2018-09-10T15:26:04.838Z,26.50
2018-09-10T15:28:33.443Z,26.30
2018-09-10T15:31:01.085Z,26.30
2018-09-10T15:33:28.595Z,26.20
2018-09-10T15:35:56.108Z,26.30
2018-09-10T15:38:27.644Z,26.20
2018-09-10T15:40:55.143Z,26.00
2018-09-10T15:43:22.735Z,26.00
2018-09-10T15:45:50.277Z,26.00
2018-09-10T15:48:17.888Z,26.00
2018-09-10T15:50:45.642Z,26.00
2018-09-10T15:53:13.200Z,26.00
2018-09-10T15:55:40.795Z,26.00
2018-09-10T15:58:25.775Z,26.00
2018-09-10T16:00:53.347Z,25.80
2018-09-10T16:03:21.119Z,25.80
2018-09-10T16:05:48.723Z,25.80
2018-09-10T16:08:16.313Z,25.70
2018-09-10T16:10:43.849Z,25.50
2018-09-10T16:13:11.379Z,25.50
2018-09-10T16:15:38.948Z,25.50
2018-09-10T16:18:09.716Z,25.50
2018-09-10T16:20:37.400Z,25.40
2018-09-10T16:23:05.116Z,25.40
2018-09-10T16:25:32.839Z,25.40
2018-09-10T16:28:22.631Z,25.30
2018-09-10T16:30:50.399Z,25.20
2018-09-10T16:33:18.044Z,25.20
2018-09-10T16:35:45.732Z,25.10
2018-09-10T16:38:26.796Z,25.10
2018-09-10T16:40:55.187Z,25.00
2018-09-10T16:43:22.991Z,24.90
2018-09-10T16:45:50.667Z,24.90
2018-09-10T16:48:37.510Z,24.80
2018-09-10T16:51:05.120Z,24.70
2018-09-10T16:53:32.766Z,24.60
2018-09-10T16:56:00.500Z,24.50
2018-09-10T16:58:28.375Z,24.50
2018-09-10T17:00:56.031Z,24.40
2018-09-10T17:03:25.152Z,24.40
2018-09-10T17:05:52.825Z,24.40
2018-09-10T17:08:27.601Z,24.40
2018-09-10T17:10:55.131Z,24.30
2018-09-10T17:13:22.670Z,24.20
2018-09-10T17:15:50.223Z,23.90
2018-09-10T17:23:13.379Z,23.30
2018-09-10T17:25:40.899Z,23.20
2018-09-10T17:28:09.995Z,23.10
2018-09-10T17:30:37.535Z,23.00
2018-09-10T17:33:05.998Z,23.00
2018-09-10T17:35:33.515Z,22.90
2018-09-10T17:38:01.016Z,22.80
2018-09-10T17:40:29.668Z,22.80
2018-09-10T17:42:57.304Z,22.60
2018-09-10T17:45:24.947Z,22.60
2018-09-10T17:47:52.620Z,22.50
2018-09-10T17:50:20.355Z,22.50
2018-09-10T17:52:47.980Z,22.30
2018-09-10T17:55:16.188Z,22.30
2018-09-10T17:57:43.877Z,22.10
2018-09-10T18:00:19.867Z,21.90
2018-09-10T18:05:14.936Z,21.70
2018-09-10T18:07:42.668Z,21.40
2018-09-10T18:10:11.491Z,21.30
2018-09-10T18:12:39.205Z,21.20
2018-09-10T18:15:07.015Z,21.30
2018-09-10T18:17:34.740Z,21.30
2018-09-10T18:20:03.561Z,21.30
2018-09-10T18:22:31.247Z,21.30
2018-09-10T18:24:59.055Z,21.20
2018-09-10T18:27:26.748Z,21.20
2018-09-10T18:29:55.468Z,21.20
2018-09-10T18:32:23.240Z,21.00
2018-09-10T18:34:50.988Z,20.80
2018-09-10T18:39:50.119Z,20.70
2018-09-10T18:42:17.821Z,20.40
2018-09-10T18:44:45.544Z,20.20
2018-09-10T18:47:13.312Z,20.10
2018-09-10T18:49:41.148Z,20.20
2018-09-10T18:52:08.792Z,20.20
2018-09-10T18:54:36.527Z,20.10
2018-09-10T18:57:04.225Z,19.90
2018-09-10T18:59:34.041Z,19.90
2018-09-10T19:02:01.736Z,19.80
2018-09-10T19:04:29.429Z,19.90
2018-09-10T19:06:57.197Z,19.80
2018-09-10T19:09:24.852Z,19.80
2018-09-10T19:11:52.408Z,19.60
2018-09-10T19:14:19.915Z,19.50
2018-09-10T19:16:47.483Z,19.30
2018-09-10T19:21:44.332Z,18.90
2018-09-10T19:24:11.840Z,18.80
2018-09-10T19:26:39.428Z,18.80
2018-09-10T19:29:21.968Z,18.90
2018-09-10T19:31:49.547Z,19.00
2018-09-10T19:34:17.083Z,19.00
2018-09-10T19:36:44.648Z,19.00
2018-09-10T19:39:23.567Z,19.00
2018-09-10T19:41:51.152Z,19.00
2018-09-10T19:49:22.587Z,18.40
2018-09-10T19:51:50.295Z,18.40
2018-09-10T19:56:50.821Z,18.20
2018-09-10T19:59:21.875Z,18.20
2018-09-10T20:01:49.419Z,18.20
2018-09-10T20:04:16.945Z,18.20
2018-09-10T20:06:44.485Z,18.30
2018-09-10T20:09:12.115Z,18.30
2018-09-10T20:11:39.660Z,18.10
2018-09-10T20:14:07.303Z,18.10
2018-09-10T20:16:34.809Z,18.10
2018-09-10T20:19:10.196Z,18.10
2018-09-10T20:21:37.892Z,18.10
2018-09-10T20:24:05.427Z,18.30
2018-09-10T20:26:32.940Z,18.00
2018-09-10T20:29:00.520Z,17.80
2018-09-10T20:34:00.792Z,17.80
2018-09-10T20:36:28.375Z,18.00
2018-09-10T20:39:07.707Z,18.10
2018-09-10T20:41:35.256Z,18.00
2018-09-10T20:44:02.763Z,18.00
2018-09-10T20:46:30.280Z,17.90
2018-09-10T20:49:29.088Z,18.00
2018-09-10T20:51:56.594Z,17.90
2018-09-10T20:56:51.376Z,17.60
2018-09-10T20:59:27.159Z,17.50
2018-09-10T21:01:54.702Z,17.50
2018-09-10T21:04:22.643Z,17.40
2018-09-10T21:06:50.164Z,17.30
2018-09-10T21:09:17.728Z,17.30
2018-09-10T21:11:45.291Z,17.10
2018-09-10T21:14:12.939Z,17.10
2018-09-10T21:16:40.496Z,17.20
2018-09-10T21:19:09.255Z,17.20
2018-09-10T21:21:36.920Z,17.30
2018-09-10T21:24:04.585Z,17.30
2018-09-10T21:26:32.344Z,17.30
2018-09-10T21:29:02.415Z,17.30
2018-09-10T21:31:30.133Z,17.30
2018-09-10T21:33:57.847Z,17.20
2018-09-10T21:36:25.556Z,17.10
2018-09-10T21:39:01.162Z,16.90
2018-09-10T21:41:28.843Z,16.80
2018-09-10T21:43:56.515Z,16.70
2018-09-10T21:46:24.231Z,16.70
2018-09-10T21:48:52.571Z,16.70
2018-09-10T21:51:20.240Z,16.70
2018-09-10T21:53:48.178Z,16.60
2018-09-10T21:56:15.643Z,16.70
2018-09-10T21:58:44.365Z,16.80
2018-09-10T22:01:12.068Z,16.80
2018-09-10T22:03:39.800Z,16.80
2018-09-10T22:06:07.488Z,16.70
2018-09-10T22:08:52.061Z,16.70
2018-09-10T22:11:19.707Z,16.80
2018-09-10T22:13:47.403Z,16.70
2018-09-10T22:16:15.087Z,16.60
2018-09-10T22:18:49.960Z,16.60
2018-09-10T22:21:17.716Z,16.60
2018-09-10T22:23:45.423Z,16.60
2018-09-10T22:26:13.079Z,16.50
2018-09-10T22:28:41.799Z,16.50
2018-09-10T22:31:09.512Z,16.40
2018-09-10T22:33:37.207Z,16.50
2018-09-10T22:36:04.959Z,16.50
2018-09-10T22:38:46.713Z,16.50
2018-09-10T22:41:14.421Z,16.50
2018-09-10T22:43:42.074Z,16.50
2018-09-10T22:46:09.827Z,16.60
2018-09-10T22:48:50.675Z,16.50
2018-09-10T22:51:18.831Z,16.50
2018-09-10T22:56:13.899Z,16.20
2018-09-10T22:58:42.721Z,16.00
2018-09-10T23:01:10.449Z,16.00
2018-09-10T23:03:38.096Z,16.00
2018-09-10T23:06:05.764Z,16.00
2018-09-10T23:08:48.269Z,16.10
2018-09-10T23:11:16.000Z,16.10
2018-09-10T23:13:43.735Z,16.10
2018-09-10T23:16:11.472Z,16.10
2018-09-10T23:18:43.540Z,16.00
2018-09-10T23:21:11.163Z,16.00
2018-09-10T23:23:38.783Z,15.80
2018-09-10T23:26:06.408Z,15.70
2018-09-10T23:28:55.699Z,15.70
2018-09-10T23:31:23.215Z,15.70
2018-09-10T23:33:50.751Z,15.70
2018-09-10T23:36:18.271Z,15.60
2018-09-10T23:38:53.056Z,15.60
2018-09-10T23:41:20.623Z,15.60
2018-09-10T23:43:48.147Z,15.60
2018-09-10T23:46:15.690Z,15.50
2018-09-10T23:48:43.283Z,15.50
2018-09-10T23:51:10.856Z,15.30
2018-09-10T23:53:38.380Z,15.40
2018-09-10T23:56:06.036Z,15.50
2018-09-10T23:58:33.772Z,15.40
